Aviation Digital Data Service (ADDS)

Output produced by METARs form (0554 UTC 30 September 2014)
found at http://www.aviationweather.gov/adds/metars/
 
KSAV 300540Z AUTO 03007KT 10SM OVC011 21/18 A2989 RMK AO2 TSNO